sensor_id;sensor_type;location;lat;lon;timestamp;pressure;altitude;pressure_sealevel;temperature;humidity
84199;BME280;74337;46.510;6.668;2023-11-22T00:00:56;96784.25;;;27.19;34.06
84199;BME280;74337;46.510;6.668;2023-11-22T00:03:44;96783.09;;;27.17;34.09
84199;BME280;74337;46.510;6.668;2023-11-22T00:06:32;96789.78;;;27.16;33.95
84199;BME280;74337;46.510;6.668;2023-11-22T00:09:20;96794.91;;;27.17;33.95
84199;BME280;74337;46.510;6.668;2023-11-22T00:12:10;96792.13;;;27.13;34.13
84199;BME280;74337;46.510;6.668;2023-11-22T00:14:58;96787.41;;;27.14;34.10
84199;BME280;74337;46.510;6.668;2023-11-22T00:17:46;96778.75;;;27.12;34.08
84199;BME280;74337;46.510;6.668;2023-11-22T00:20:35;96773.25;;;27.08;34.14
84199;BME280;74337;46.510;6.668;2023-11-22T00:23:24;96780.72;;;27.08;34.10
84199;BME280;74337;46.510;6.668;2023-11-22T00:26:17;96765.00;;;27.05;34.28
84199;BME280;74337;46.510;6.668;2023-11-22T00:29:14;96755.91;;;27.04;34.19
84199;BME280;74337;46.510;6.668;2023-11-22T00:32:02;96768.53;;;27.02;34.30
84199;BME280;74337;46.510;6.668;2023-11-22T00:34:50;96768.53;;;27.02;34.17
84199;BME280;74337;46.510;6.668;2023-11-22T00:37:38;96774.06;;;27.02;34.24
84199;BME280;74337;46.510;6.668;2023-11-22T00:40:26;96772.88;;;26.99;34.35
84199;BME280;74337;46.510;6.668;2023-11-22T00:43:14;96787.03;;;26.98;34.24
84199;BME280;74337;46.510;6.668;2023-11-22T00:46:02;96782.31;;;26.98;34.26
84199;BME280;74337;46.510;6.668;2023-11-22T00:48:50;96789.38;;;26.96;34.33
84199;BME280;74337;46.510;6.668;2023-11-22T00:51:38;96783.88;;;26.96;34.23
84199;BME280;74337;46.510;6.668;2023-11-22T00:54:26;96783.50;;;26.94;34.40
84199;BME280;74337;46.510;6.668;2023-11-22T00:57:14;96790.16;;;26.92;34.28
84199;BME280;74337;46.510;6.668;2023-11-22T01:00:04;96799.25;;;26.93;34.45
84199;BME280;74337;46.510;6.668;2023-11-22T01:02:53;96801.59;;;26.91;34.34
84199;BME280;74337;46.510;6.668;2023-11-22T01:05:41;96804.38;;;26.87;34.57
84199;BME280;74337;46.510;6.668;2023-11-22T01:08:30;96795.69;;;26.89;34.35
84199;BME280;74337;46.510;6.668;2023-11-22T01:11:18;96792.16;;;26.88;34.45
84199;BME280;74337;46.510;6.668;2023-11-22T01:14:08;96800.81;;;26.87;34.56
84199;BME280;74337;46.510;6.668;2023-11-22T01:16:56;96806.72;;;26.85;34.48
84199;BME280;74337;46.510;6.668;2023-11-22T01:19:45;96808.28;;;26.86;34.44
84199;BME280;74337;46.510;6.668;2023-11-22T01:22:33;96813.41;;;26.84;34.57
84199;BME280;74337;46.510;6.668;2023-11-22T01:25:21;96813.00;;;26.82;34.61
84199;BME280;74337;46.510;6.668;2023-11-22T01:28:10;96814.59;;;26.80;34.71
84199;BME280;74337;46.510;6.668;2023-11-22T01:30:59;96819.69;;;26.74;34.80
84199;BME280;74337;46.510;6.668;2023-11-22T01:33:47;96819.31;;;26.76;34.72
84199;BME280;74337;46.510;6.668;2023-11-22T01:36:37;96816.56;;;26.76;34.75
84199;BME280;74337;46.510;6.668;2023-11-22T01:39:25;96824.03;;;26.75;34.73
84199;BME280;74337;46.510;6.668;2023-11-22T01:42:14;96822.06;;;26.72;34.77
84199;BME280;74337;46.510;6.668;2023-11-22T01:45:03;96826.38;;;26.73;34.76
84199;BME280;74337;46.510;6.668;2023-11-22T01:47:53;96828.38;;;26.73;34.70
84199;BME280;74337;46.510;6.668;2023-11-22T01:50:42;96840.94;;;26.70;34.73
84199;BME280;74337;46.510;6.668;2023-11-22T01:53:32;96826.78;;;26.72;34.93
84199;BME280;74337;46.510;6.668;2023-11-22T01:56:21;96837.00;;;26.67;34.89
84199;BME280;74337;46.510;6.668;2023-11-22T01:59:10;96842.50;;;26.67;34.88
84199;BME280;74337;46.510;6.668;2023-11-22T02:01:58;96843.28;;;26.64;35.02
84199;BME280;74337;46.510;6.668;2023-11-22T02:04:46;96842.09;;;26.65;34.90
84199;BME280;74337;46.510;6.668;2023-11-22T02:07:34;96838.19;;;26.66;34.98
84199;BME280;74337;46.510;6.668;2023-11-22T02:10:21;96847.63;;;26.62;34.85
84199;BME280;74337;46.510;6.668;2023-11-22T02:13:11;96846.47;;;26.63;35.00
84199;BME280;74337;46.510;6.668;2023-11-22T02:15:59;96844.88;;;26.62;34.92
84199;BME280;74337;46.510;6.668;2023-11-22T02:18:49;96846.44;;;26.59;35.07
84199;BME280;74337;46.510;6.668;2023-11-22T02:21:36;96837.00;;;26.60;35.03
84199;BME280;74337;46.510;6.668;2023-11-22T02:24:24;96846.44;;;26.59;34.88
84199;BME280;74337;46.510;6.668;2023-11-22T02:27:12;96844.09;;;26.58;34.96
84199;BME280;74337;46.510;6.668;2023-11-22T02:29:59;96845.25;;;26.53;35.26
84199;BME280;74337;46.510;6.668;2023-11-22T02:32:53;96842.13;;;26.55;35.10
84199;BME280;74337;46.510;6.668;2023-11-22T02:35:41;96840.53;;;26.54;35.26
84199;BME280;74337;46.510;6.668;2023-11-22T02:38:29;96851.16;;;26.55;35.15
84199;BME280;74337;46.510;6.668;2023-11-22T02:41:17;96848.81;;;26.54;35.20
84199;BME280;74337;46.510;6.668;2023-11-22T02:44:05;96843.69;;;26.52;35.19
84199;BME280;74337;46.510;6.668;2023-11-22T02:46:56;96851.53;;;26.50;35.35
84199;BME280;74337;46.510;6.668;2023-11-22T02:49:45;96858.63;;;26.51;35.31
84199;BME280;74337;46.510;6.668;2023-11-22T02:52:34;96857.84;;;26.51;35.23
84199;BME280;74337;46.510;6.668;2023-11-22T02:55:22;96862.13;;;26.48;35.23
84199;BME280;74337;46.510;6.668;2023-11-22T02:58:10;96860.97;;;26.49;35.28
84199;BME280;74337;46.510;6.668;2023-11-22T03:01:00;96870.00;;;26.50;35.20
84199;BME280;74337;46.510;6.668;2023-11-22T03:03:48;96866.03;;;26.47;35.18
84199;BME280;74337;46.510;6.668;2023-11-22T03:06:36;96868.41;;;26.45;35.38
84199;BME280;74337;46.510;6.668;2023-11-22T03:09:25;96868.78;;;26.43;35.27
84199;BME280;74337;46.510;6.668;2023-11-22T03:12:15;96867.63;;;26.44;35.39
84199;BME280;74337;46.510;6.668;2023-11-22T03:15:05;96871.53;;;26.43;35.23
84199;BME280;74337;46.510;6.668;2023-11-22T03:17:53;96875.09;;;26.44;35.37
84199;BME280;74337;46.510;6.668;2023-11-22T03:20:42;96878.25;;;26.42;35.34
84199;BME280;74337;46.510;6.668;2023-11-22T03:23:31;96884.13;;;26.41;35.36
84199;BME280;74337;46.510;6.668;2023-11-22T03:26:19;96884.16;;;26.44;35.44
84199;BME280;74337;46.510;6.668;2023-11-22T03:29:07;96880.59;;;26.40;35.45
84199;BME280;74337;46.510;6.668;2023-11-22T03:31:56;96881.00;;;26.42;35.47
84199;BME280;74337;46.510;6.668;2023-11-22T03:34:44;96880.59;;;26.40;35.40
84199;BME280;74337;46.510;6.668;2023-11-22T03:37:33;96875.47;;;26.39;35.46
84199;BME280;74337;46.510;6.668;2023-11-22T03:40:21;96876.25;;;26.36;35.33
84199;BME280;74337;46.510;6.668;2023-11-22T03:43:08;96868.38;;;26.34;35.37
84199;BME280;74337;46.510;6.668;2023-11-22T03:45:58;96878.19;;;26.35;35.40
84199;BME280;74337;46.510;6.668;2023-11-22T03:48:46;96879.78;;;26.33;35.55
84199;BME280;74337;46.510;6.668;2023-11-22T03:51:36;96882.94;;;26.35;35.45
84199;BME280;74337;46.510;6.668;2023-11-22T03:54:24;96881.72;;;26.29;35.54
84199;BME280;74337;46.510;6.668;2023-11-22T03:57:12;96886.06;;;26.30;35.49
84199;BME280;74337;46.510;6.668;2023-11-22T04:00:00;96892.75;;;26.29;35.72
84199;BME280;74337;46.510;6.668;2023-11-22T04:02:49;96904.16;;;26.27;35.55
84199;BME280;74337;46.510;6.668;2023-11-22T04:05:37;96903.75;;;26.29;35.51
84199;BME280;74337;46.510;6.668;2023-11-22T04:08:25;96906.91;;;26.27;35.68
84199;BME280;74337;46.510;6.668;2023-11-22T04:11:13;96902.56;;;26.26;35.72
84199;BME280;74337;46.510;6.668;2023-11-22T04:14:01;96902.97;;;26.28;35.71
84199;BME280;74337;46.510;6.668;2023-11-22T04:16:49;96904.16;;;26.27;35.52
84199;BME280;74337;46.510;6.668;2023-11-22T04:19:38;96903.38;;;26.27;35.58
84199;BME280;74337;46.510;6.668;2023-11-22T04:22:26;96899.81;;;26.26;35.67
84199;BME280;74337;46.510;6.668;2023-11-22T04:25:14;96898.22;;;26.25;35.69
84199;BME280;74337;46.510;6.668;2023-11-22T04:28:03;96901.38;;;26.23;35.73
84199;BME280;74337;46.510;6.668;2023-11-22T04:30:51;96896.66;;;26.24;35.59
84199;BME280;74337;46.510;6.668;2023-11-22T04:33:39;96894.28;;;26.22;35.60
84199;BME280;74337;46.510;6.668;2023-11-22T04:36:28;96895.06;;;26.23;35.70
84199;BME280;74337;46.510;6.668;2023-11-22T04:39:17;96899.41;;;26.24;35.60
84199;BME280;74337;46.510;6.668;2023-11-22T04:42:05;96897.03;;;26.22;35.70
84199;BME280;74337;46.510;6.668;2023-11-22T04:44:54;96898.22;;;26.21;35.69
84199;BME280;74337;46.510;6.668;2023-11-22T04:47:42;96911.19;;;26.21;35.70
84199;BME280;74337;46.510;6.668;2023-11-22T04:50:30;96893.91;;;26.20;35.53
84199;BME280;74337;46.510;6.668;2023-11-22T04:53:19;96893.09;;;26.20;35.58
84199;BME280;74337;46.510;6.668;2023-11-22T04:56:07;96891.16;;;26.20;35.70
84199;BME280;74337;46.510;6.668;2023-11-22T04:58:55;96897.81;;;26.19;35.64
84199;BME280;74337;46.510;6.668;2023-11-22T05:01:44;96900.97;;;26.21;35.54
84199;BME280;74337;46.510;6.668;2023-11-22T05:04:33;96898.22;;;26.18;35.53
84199;BME280;74337;46.510;6.668;2023-11-22T05:07:21;96908.44;;;26.21;35.57
84199;BME280;74337;46.510;6.668;2023-11-22T05:10:10;96910.78;;;26.19;35.58
84199;BME280;74337;46.510;6.668;2023-11-22T05:12:58;96920.63;;;26.20;35.61
84199;BME280;74337;46.510;6.668;2023-11-22T05:15:48;96930.47;;;26.21;35.49
84199;BME280;74337;46.510;6.668;2023-11-22T05:18:36;96930.88;;;26.27;35.48
84199;BME280;74337;46.510;6.668;2023-11-22T05:21:23;96938.31;;;26.22;35.35
84199;BME280;74337;46.510;6.668;2023-11-22T05:24:11;96936.34;;;26.23;35.46
84199;BME280;74337;46.510;6.668;2023-11-22T05:26:59;96938.31;;;26.22;35.38
84199;BME280;74337;46.510;6.668;2023-11-22T05:29:47;96945.00;;;26.21;35.46
84199;BME280;74337;46.510;6.668;2023-11-22T05:32:42;96944.59;;;26.23;35.39
84199;BME280;74337;46.510;6.668;2023-11-22T05:35:30;96943.81;;;26.22;35.46
84199;BME280;74337;46.510;6.668;2023-11-22T05:38:18;96945.00;;;26.21;35.35
84199;BME280;74337;46.510;6.668;2023-11-22T05:41:06;96952.91;;;26.27;35.29
84199;BME280;74337;46.510;6.668;2023-11-22T05:43:54;96956.03;;;26.29;35.19
84199;BME280;74337;46.510;6.668;2023-11-22T05:46:42;96945.03;;;26.29;35.38
84199;BME280;74337;46.510;6.668;2023-11-22T05:49:29;96963.91;;;26.27;35.41
84199;BME280;74337;46.510;6.668;2023-11-22T05:52:17;96970.19;;;26.27;35.38
84199;BME280;74337;46.510;6.668;2023-11-22T05:55:06;96980.03;;;26.28;35.30
84199;BME280;74337;46.510;6.668;2023-11-22T05:57:56;96984.34;;;26.29;35.42
84199;BME280;74337;46.510;6.668;2023-11-22T06:00:45;96994.22;;;26.34;35.22
84199;BME280;74337;46.510;6.668;2023-11-22T06:03:34;96995.75;;;26.31;35.37
84199;BME280;74337;46.510;6.668;2023-11-22T06:06:23;96996.56;;;26.35;35.30
84199;BME280;74337;46.510;6.668;2023-11-22T06:09:11;96997.75;;;26.38;35.33
84199;BME280;74337;46.510;6.668;2023-11-22T06:12:02;96993.84;;;26.39;35.39
84199;BME280;74337;46.510;6.668;2023-11-22T06:14:51;96987.94;;;26.44;35.22
84199;BME280;74337;46.510;6.668;2023-11-22T06:17:39;96994.28;;;26.48;35.25
84199;BME280;74337;46.510;6.668;2023-11-22T06:20:27;96991.91;;;26.46;35.35
84199;BME280;74337;46.510;6.668;2023-11-22T06:23:15;96989.19;;;26.50;35.23
84199;BME280;74337;46.510;6.668;2023-11-22T06:26:03;96989.19;;;26.50;35.32
84199;BME280;74337;46.510;6.668;2023-11-22T06:28:51;96989.19;;;26.50;35.21
84199;BME280;74337;46.510;6.668;2023-11-22T06:31:40;96989.53;;;26.45;34.11
84199;BME280;74337;46.510;6.668;2023-11-22T06:34:28;96997.03;;;26.48;35.05
84199;BME280;74337;46.510;6.668;2023-11-22T06:37:16;96999.41;;;26.50;34.91
84199;BME280;74337;46.510;6.668;2023-11-22T06:40:04;97002.97;;;26.54;34.99
84199;BME280;74337;46.510;6.668;2023-11-22T06:42:53;97001.00;;;26.54;34.81
84199;BME280;74337;46.510;6.668;2023-11-22T06:45:41;97011.25;;;26.57;34.94
84199;BME280;74337;46.510;6.668;2023-11-22T06:48:29;97015.56;;;26.55;34.85
84199;BME280;74337;46.510;6.668;2023-11-22T06:51:17;97008.50;;;26.57;34.92
84199;BME280;74337;46.510;6.668;2023-11-22T06:54:06;97017.16;;;26.59;34.82
84199;BME280;74337;46.510;6.668;2023-11-22T06:56:54;97016.78;;;26.61;34.72
84199;BME280;74337;46.510;6.668;2023-11-22T06:59:42;97012.84;;;26.65;34.77
84199;BME280;74337;46.510;6.668;2023-11-22T07:02:31;97017.19;;;26.66;34.77
84199;BME280;74337;46.510;6.668;2023-11-22T07:05:19;97025.03;;;26.68;34.75
84199;BME280;74337;46.510;6.668;2023-11-22T07:08:07;97021.50;;;26.67;34.80
84199;BME280;74337;46.510;6.668;2023-11-22T07:10:55;97018.75;;;26.67;34.74
84199;BME280;74337;46.510;6.668;2023-11-22T07:13:44;97034.13;;;26.72;34.61
84199;BME280;74337;46.510;6.668;2023-11-22T07:16:33;97036.09;;;26.75;34.49
84199;BME280;74337;46.510;6.668;2023-11-22T07:19:21;97034.13;;;26.76;34.58
84199;BME280;74337;46.510;6.668;2023-11-22T07:22:09;97037.69;;;26.76;34.57
84199;BME280;74337;46.510;6.668;2023-11-22T07:25:04;97038.47;;;26.77;34.58
84199;BME280;74337;46.510;6.668;2023-11-22T07:27:53;97043.19;;;26.80;34.52
84199;BME280;74337;46.510;6.668;2023-11-22T07:30:44;97047.13;;;26.82;34.51
84199;BME280;74337;46.510;6.668;2023-11-22T07:33:32;97044.38;;;26.82;34.50
84199;BME280;74337;46.510;6.668;2023-11-22T07:36:20;97041.25;;;26.87;34.45
84199;BME280;74337;46.510;6.668;2023-11-22T07:39:08;97044.41;;;26.89;34.43
84199;BME280;74337;46.510;6.668;2023-11-22T07:41:59;97043.63;;;26.89;34.37
84199;BME280;74337;46.510;6.668;2023-11-22T07:44:47;97051.50;;;26.98;34.33
84199;BME280;74337;46.510;6.668;2023-11-22T07:47:35;97058.22;;;27.04;34.17
84199;BME280;74337;46.510;6.668;2023-11-22T07:50:23;97049.59;;;27.12;34.01
84199;BME280;74337;46.510;6.668;2023-11-22T07:53:12;97039.38;;;27.17;33.84
84199;BME280;74337;46.510;6.668;2023-11-22T07:56:02;97059.88;;;27.19;33.87
84199;BME280;74337;46.510;6.668;2023-11-22T07:58:53;97059.50;;;27.24;33.82
84199;BME280;74337;46.510;6.668;2023-11-22T08:01:44;97078.41;;;27.26;33.75
84199;BME280;74337;46.510;6.668;2023-11-22T08:04:33;97075.25;;;27.24;33.96
84199;BME280;74337;46.510;6.668;2023-11-22T08:07:21;97082.72;;;27.27;33.83
84199;BME280;74337;46.510;6.668;2023-11-22T08:10:10;97090.22;;;27.30;33.59
84199;BME280;74337;46.510;6.668;2023-11-22T08:13:08;97102.84;;;27.38;33.59
84199;BME280;74337;46.510;6.668;2023-11-22T08:15:57;97107.97;;;27.40;33.62
84199;BME280;74337;46.510;6.668;2023-11-22T08:18:45;97103.63;;;27.42;33.48
84199;BME280;74337;46.510;6.668;2023-11-22T08:21:33;97109.56;;;27.44;33.55
84199;BME280;74337;46.510;6.668;2023-11-22T08:24:22;97101.28;;;27.48;33.42
84199;BME280;74337;46.510;6.668;2023-11-22T08:27:10;97108.78;;;27.51;33.50
84199;BME280;74337;46.510;6.668;2023-11-22T08:30:00;97105.25;;;27.54;33.35
84199;BME280;74337;46.510;6.668;2023-11-22T08:32:53;97113.91;;;27.56;33.37
84199;BME280;74337;46.510;6.668;2023-11-22T08:35:42;97121.41;;;27.59;33.30
84199;BME280;74337;46.510;6.668;2023-11-22T08:38:31;97115.06;;;27.58;33.33
84199;BME280;74337;46.510;6.668;2023-11-22T08:41:21;97130.84;;;27.58;33.41
84199;BME280;74337;46.510;6.668;2023-11-22T08:44:11;97130.47;;;27.59;33.34
84199;BME280;74337;46.510;6.668;2023-11-22T08:46:59;97132.81;;;27.61;33.27
84199;BME280;74337;46.510;6.668;2023-11-22T08:49:46;97119.44;;;27.59;33.36
84199;BME280;74337;46.510;6.668;2023-11-22T08:52:37;97114.69;;;27.64;33.33
84199;BME280;74337;46.510;6.668;2023-11-22T08:55:26;97112.34;;;27.62;33.34
84199;BME280;74337;46.510;6.668;2023-11-22T08:58:14;97103.28;;;27.65;33.51
84199;BME280;74337;46.510;6.668;2023-11-22T09:01:02;97104.06;;;27.69;33.70
84199;BME280;74337;46.510;6.668;2023-11-22T09:03:51;97113.13;;;27.70;33.55
84199;BME280;74337;46.510;6.668;2023-11-22T09:06:40;97111.16;;;27.70;33.56
84199;BME280;74337;46.510;6.668;2023-11-22T09:09:28;97101.31;;;27.69;33.63
84199;BME280;74337;46.510;6.668;2023-11-22T09:12:18;97092.63;;;27.71;33.50
84199;BME280;74337;46.510;6.668;2023-11-22T09:15:12;97102.88;;;27.70;33.73
84199;BME280;74337;46.510;6.668;2023-11-22T09:18:05;97090.28;;;27.69;33.76
84199;BME280;74337;46.510;6.668;2023-11-22T09:20:54;97100.13;;;27.74;33.71
84199;BME280;74337;46.510;6.668;2023-11-22T09:23:43;97098.19;;;27.74;33.67
84199;BME280;74337;46.510;6.668;2023-11-22T09:26:31;97097.38;;;27.74;33.71
84199;BME280;74337;46.510;6.668;2023-11-22T09:29:19;97091.47;;;27.75;33.82
84199;BME280;74337;46.510;6.668;2023-11-22T09:32:06;97100.13;;;27.74;33.80
84199;BME280;74337;46.510;6.668;2023-11-22T09:34:54;97088.31;;;27.73;33.84
84199;BME280;74337;46.510;6.668;2023-11-22T09:37:46;97076.88;;;27.75;33.94
84199;BME280;74337;46.510;6.668;2023-11-22T09:40:33;97079.25;;;27.76;33.94
84199;BME280;74337;46.510;6.668;2023-11-22T09:43:23;97074.94;;;27.79;33.94
84199;BME280;74337;46.510;6.668;2023-11-22T09:46:13;97076.91;;;27.82;33.84
84199;BME280;74337;46.510;6.668;2023-11-22T09:49:08;97072.97;;;27.87;33.74
84199;BME280;74337;46.510;6.668;2023-11-22T09:52:01;97085.22;;;27.89;33.76
84199;BME280;74337;46.510;6.668;2023-11-22T09:54:52;97084.41;;;27.96;33.75
84199;BME280;74337;46.510;6.668;2023-11-22T09:57:41;97082.44;;;28.00;33.73
84199;BME280;74337;46.510;6.668;2023-11-22T10:00:30;97086.38;;;28.02;33.52
84199;BME280;74337;46.510;6.668;2023-11-22T10:03:19;97093.06;;;28.05;33.64
84199;BME280;74337;46.510;6.668;2023-11-22T10:06:08;97089.13;;;28.06;33.61
84199;BME280;74337;46.510;6.668;2023-11-22T10:08:56;97090.31;;;28.09;33.59
84199;BME280;74337;46.510;6.668;2023-11-22T10:11:44;97099.78;;;28.08;33.66
84199;BME280;74337;46.510;6.668;2023-11-22T10:14:34;97092.28;;;28.12;33.51
84199;BME280;74337;46.510;6.668;2023-11-22T10:17:22;97090.31;;;28.12;33.42
84199;BME280;74337;46.510;6.668;2023-11-22T10:20:10;97090.28;;;28.16;33.41
84199;BME280;74337;46.510;6.668;2023-11-22T10:22:59;97088.34;;;28.20;33.44
84199;BME280;74337;46.510;6.668;2023-11-22T10:25:49;97068.59;;;28.21;33.40
84199;BME280;74337;46.510;6.668;2023-11-22T10:28:39;97085.97;;;28.25;33.33
84199;BME280;74337;46.510;6.668;2023-11-22T10:31:27;97085.56;;;28.27;33.27
84199;BME280;74337;46.510;6.668;2023-11-22T10:34:20;97084.38;;;28.28;33.29
84199;BME280;74337;46.510;6.668;2023-11-22T10:37:08;97079.22;;;28.30;33.19
84199;BME280;74337;46.510;6.668;2023-11-22T10:39:57;97074.50;;;28.31;33.05
84199;BME280;74337;46.510;6.668;2023-11-22T10:42:47;97076.09;;;28.32;33.02
84199;BME280;74337;46.510;6.668;2023-11-22T10:45:41;97089.50;;;28.30;33.16
84199;BME280;74337;46.510;6.668;2023-11-22T10:48:33;97084.75;;;28.30;33.16
84199;BME280;74337;46.510;6.668;2023-11-22T10:51:23;97092.66;;;28.28;33.18
84199;BME280;74337;46.510;6.668;2023-11-22T10:54:14;97101.72;;;28.29;33.19
84199;BME280;74337;46.510;6.668;2023-11-22T10:57:03;97101.31;;;28.30;33.08
84199;BME280;74337;46.510;6.668;2023-11-22T10:59:54;97088.72;;;28.25;33.26
84199;BME280;74337;46.510;6.668;2023-11-22T11:02:47;97090.66;;;28.25;33.30
84199;BME280;74337;46.510;6.668;2023-11-22T11:05:49;97087.53;;;28.26;33.39
84199;BME280;74337;46.510;6.668;2023-11-22T11:08:39;97078.06;;;28.24;33.40
84199;BME280;74337;46.510;6.668;2023-11-22T11:11:29;97070.97;;;28.23;33.25
84199;BME280;74337;46.510;6.668;2023-11-22T11:14:19;97079.25;;;28.23;33.27
84199;BME280;74337;46.510;6.668;2023-11-22T11:17:08;97063.84;;;28.22;33.33
84199;BME280;74337;46.510;6.668;2023-11-22T11:19:57;97049.69;;;28.23;33.31
84199;BME280;74337;46.510;6.668;2023-11-22T11:22:47;97061.50;;;28.24;33.20
84199;BME280;74337;46.510;6.668;2023-11-22T11:25:36;97063.84;;;28.22;33.22
84199;BME280;74337;46.510;6.668;2023-11-22T11:28:25;97056.38;;;28.22;33.40
84199;BME280;74337;46.510;6.668;2023-11-22T11:31:21;97058.75;;;28.20;33.31
84199;BME280;74337;46.510;6.668;2023-11-22T11:34:10;97064.28;;;28.20;33.37
84199;BME280;74337;46.510;6.668;2023-11-22T11:37:03;97070.56;;;28.21;33.37
84199;BME280;74337;46.510;6.668;2023-11-22T11:39:51;97058.75;;;28.20;33.35
84199;BME280;74337;46.510;6.668;2023-11-22T11:42:40;97073.34;;;28.21;33.29
84199;BME280;74337;46.510;6.668;2023-11-22T11:45:35;97057.97;;;28.20;33.40
84199;BME280;74337;46.510;6.668;2023-11-22T11:48:24;97069.38;;;28.22;33.31
84199;BME280;74337;46.510;6.668;2023-11-22T11:51:17;97067.41;;;28.19;33.32
84199;BME280;74337;46.510;6.668;2023-11-22T11:54:05;97074.13;;;28.21;33.42
84199;BME280;74337;46.510;6.668;2023-11-22T11:56:58;97077.66;;;28.22;33.24
84199;BME280;74337;46.510;6.668;2023-11-22T11:59:47;97074.91;;;28.22;33.38
84199;BME280;74337;46.510;6.668;2023-11-22T12:02:35;97088.31;;;28.23;33.28
84199;BME280;74337;46.510;6.668;2023-11-22T12:05:23;97094.63;;;28.24;33.31
84199;BME280;74337;46.510;6.668;2023-11-22T12:08:13;97087.53;;;28.26;33.31
84199;BME280;74337;46.510;6.668;2023-11-22T12:11:04;97081.22;;;28.26;33.21
84199;BME280;74337;46.510;6.668;2023-11-22T12:13:54;97082.00;;;28.26;33.27
84199;BME280;74337;46.510;6.668;2023-11-22T12:16:44;97078.88;;;28.28;33.17
84199;BME280;74337;46.510;6.668;2023-11-22T12:19:35;97082.78;;;28.31;33.25
84199;BME280;74337;46.510;6.668;2023-11-22T12:22:23;97072.94;;;28.30;33.15
84199;BME280;74337;46.510;6.668;2023-11-22T12:25:13;97079.22;;;28.34;33.14
84199;BME280;74337;46.510;6.668;2023-11-22T12:28:02;97071.34;;;28.32;33.24
84199;BME280;74337;46.510;6.668;2023-11-22T12:30:50;97074.91;;;28.33;33.21
84199;BME280;74337;46.510;6.668;2023-11-22T12:33:41;97078.84;;;28.35;33.23
84199;BME280;74337;46.510;6.668;2023-11-22T12:36:29;97082.38;;;28.36;33.23
84199;BME280;74337;46.510;6.668;2023-11-22T12:39:20;97078.06;;;28.35;33.07
84199;BME280;74337;46.510;6.668;2023-11-22T12:42:08;97081.59;;;28.35;33.13
84199;BME280;74337;46.510;6.668;2023-11-22T12:44:58;97091.88;;;28.35;33.24
84199;BME280;74337;46.510;6.668;2023-11-22T12:47:46;97101.31;;;28.34;33.14
84199;BME280;74337;46.510;6.668;2023-11-22T12:50:37;97091.88;;;28.35;33.21
84199;BME280;74337;46.510;6.668;2023-11-22T12:53:27;97104.88;;;28.34;33.13
84199;BME280;74337;46.510;6.668;2023-11-22T12:56:16;97113.94;;;28.35;33.10
84199;BME280;74337;46.510;6.668;2023-11-22T12:59:03;97103.69;;;28.35;33.29
84199;BME280;74337;46.510;6.668;2023-11-22T13:01:51;97111.19;;;28.31;33.18
84199;BME280;74337;46.510;6.668;2023-11-22T13:04:40;97110.00;;;28.32;33.41
84199;BME280;74337;46.510;6.668;2023-11-22T13:07:28;97114.75;;;28.32;33.23
84199;BME280;74337;46.510;6.668;2023-11-22T13:10:18;97130.50;;;28.35;33.25
84199;BME280;74337;46.510;6.668;2023-11-22T13:13:06;97149.06;;;28.34;33.22
84199;BME280;74337;46.510;6.668;2023-11-22T13:15:56;97145.88;;;28.36;33.08
84199;BME280;74337;46.510;6.668;2023-11-22T13:18:45;97134.09;;;28.10;31.17
84199;BME280;74337;46.510;6.668;2023-11-22T13:21:33;97135.28;;;28.16;32.84
84199;BME280;74337;46.510;6.668;2023-11-22T13:24:21;97149.06;;;28.20;33.25
84199;BME280;74337;46.510;6.668;2023-11-22T13:27:09;97173.13;;;28.23;33.11
84199;BME280;74337;46.510;6.668;2023-11-22T13:29:57;97192.81;;;28.25;33.23
84199;BME280;74337;46.510;6.668;2023-11-22T13:32:46;97199.16;;;28.25;33.09
84199;BME280;74337;46.510;6.668;2023-11-22T13:35:35;97196.78;;;28.27;33.24
84199;BME280;74337;46.510;6.668;2023-11-22T13:38:26;97202.28;;;28.27;33.24
84199;BME280;74337;46.510;6.668;2023-11-22T13:41:13;97193.63;;;28.29;33.25
84199;BME280;74337;46.510;6.668;2023-11-22T13:44:02;97203.09;;;28.28;33.20
84199;BME280;74337;46.510;6.668;2023-11-22T13:46:50;97182.19;;;28.27;33.13
84199;BME280;74337;46.510;6.668;2023-11-22T13:49:39;97188.09;;;28.25;33.29
84199;BME280;74337;46.510;6.668;2023-11-22T13:52:27;97181.78;;;28.25;32.88
84199;BME280;74337;46.510;6.668;2023-11-22T13:55:16;97187.28;;;28.25;33.10
84199;BME280;74337;46.510;6.668;2023-11-22T13:58:05;97169.56;;;28.26;33.08
84199;BME280;74337;46.510;6.668;2023-11-22T14:00:53;97168.00;;;28.29;33.09
84199;BME280;74337;46.510;6.668;2023-11-22T14:03:42;97176.28;;;28.29;33.03
84199;BME280;74337;46.510;6.668;2023-11-22T14:06:31;97170.34;;;28.30;33.15
84199;BME280;74337;46.510;6.668;2023-11-22T14:09:19;97173.88;;;28.31;33.11
84199;BME280;74337;46.510;6.668;2023-11-22T14:12:07;97169.97;;;28.32;33.07
84199;BME280;74337;46.510;6.668;2023-11-22T14:14:55;97171.53;;;28.36;33.14
84199;BME280;74337;46.510;6.668;2023-11-22T14:17:43;97158.13;;;28.35;33.14
84199;BME280;74337;46.510;6.668;2023-11-22T14:20:32;97162.06;;;28.37;33.01
84199;BME280;74337;46.510;6.668;2023-11-22T14:23:22;97160.09;;;28.38;33.07
84199;BME280;74337;46.510;6.668;2023-11-22T14:26:10;97164.84;;;28.41;32.97
84199;BME280;74337;46.510;6.668;2023-11-22T14:28:59;97168.75;;;28.40;33.15
84199;BME280;74337;46.510;6.668;2023-11-22T14:31:47;97168.41;;;28.41;33.12
84199;BME280;74337;46.510;6.668;2023-11-22T14:34:36;97169.59;;;28.44;33.03
84199;BME280;74337;46.510;6.668;2023-11-22T14:37:26;97182.97;;;28.45;33.08
84199;BME280;74337;46.510;6.668;2023-11-22T14:40:14;97192.47;;;28.44;33.07
84199;BME280;74337;46.510;6.668;2023-11-22T14:43:04;97171.56;;;28.47;33.09
84199;BME280;74337;46.510;6.668;2023-11-22T14:45:53;97194.81;;;28.46;32.80
84199;BME280;74337;46.510;6.668;2023-11-22T14:48:42;97181.81;;;28.46;33.02
84199;BME280;74337;46.510;6.668;2023-11-22T14:51:30;97194.03;;;28.45;33.08
84199;BME280;74337;46.510;6.668;2023-11-22T14:54:18;97219.66;;;28.46;33.06